createdAt,value
2023-05-23T00:01:19.323Z,100710.00
2023-05-23T00:03:47.348Z,100704.22
2023-05-23T00:06:14.713Z,100707.13
2023-05-23T00:08:41.238Z,100708.53
2023-05-23T00:11:07.696Z,100708.53
2023-05-23T00:13:34.855Z,100708.53
2023-05-23T00:16:02.502Z,100701.28
2023-05-23T00:18:28.932Z,100690.50
2023-05-23T00:20:57.412Z,100689.72
2023-05-23T00:23:25.291Z,100694.03
2023-05-23T00:25:53.421Z,100694.03
2023-05-23T00:28:20.059Z,100694.03
2023-05-23T00:30:46.583Z,100682.47
2023-05-23T00:33:14.440Z,100687.53
2023-05-23T00:35:41.631Z,100689.66
2023-05-23T00:38:08.937Z,100694.03
2023-05-23T00:40:35.331Z,100692.53
2023-05-23T00:43:01.891Z,100685.31
2023-05-23T00:45:28.402Z,100685.31
2023-05-23T00:47:54.909Z,100685.31
2023-05-23T00:50:21.503Z,100678.78
2023-05-23T00:52:48.014Z,100676.63
2023-05-23T00:55:14.526Z,100673.75
2023-05-23T00:57:44.510Z,100675.19
2023-05-23T01:00:15.234Z,100678.06
2023-05-23T01:02:45.587Z,100686.72
2023-05-23T01:05:14.871Z,100685.22
2023-05-23T01:07:41.584Z,100688.13
2023-05-23T01:10:08.248Z,100686.66
2023-05-23T01:12:41.024Z,100688.84
2023-05-23T01:15:11.095Z,100683.75
2023-05-23T01:17:37.480Z,100680.88
2023-05-23T01:20:10.203Z,100682.28
2023-05-23T01:22:44.245Z,100667.84
2023-05-23T01:25:12.099Z,100667.84
2023-05-23T01:27:48.782Z,100672.22
2023-05-23T01:30:15.165Z,100670.72
2023-05-23T01:32:41.616Z,100669.25
2023-05-23T01:35:08.317Z,100660.59
2023-05-23T01:37:36.140Z,100661.34
2023-05-23T01:40:02.673Z,100659.88
2023-05-23T01:42:29.170Z,100656.97
2023-05-23T01:44:59.270Z,100660.59
2023-05-23T01:47:25.840Z,100662.75
2023-05-23T01:49:52.298Z,100658.38
2023-05-23T01:52:18.692Z,100669.25
2023-05-23T01:54:45.177Z,100676.44
2023-05-23T01:57:12.440Z,100681.47
2023-05-23T01:59:39.058Z,100687.97
2023-05-23T02:02:05.974Z,100683.63
2023-05-23T02:04:32.486Z,100668.47
2023-05-23T02:06:58.893Z,100661.19
2023-05-23T02:09:25.385Z,100677.78
2023-05-23T02:11:51.810Z,100677.13
2023-05-23T02:14:18.702Z,100667.69
2023-05-23T02:16:45.744Z,100663.34
2023-05-23T02:19:12.254Z,100649.66
2023-05-23T02:21:38.891Z,100653.94
2023-05-23T02:24:05.318Z,100656.84
2023-05-23T02:26:31.758Z,100660.47
2023-05-23T02:28:58.161Z,100655.34
2023-05-23T02:31:24.659Z,100665.50
2023-05-23T02:33:51.124Z,100653.22
2023-05-23T02:36:17.553Z,100644.56
2023-05-23T02:38:43.971Z,100652.47
2023-05-23T02:41:10.923Z,100649.50
2023-05-23T02:43:37.790Z,100645.97
2023-05-23T02:46:04.965Z,100650.25
2023-05-23T02:48:32.612Z,100648.13
2023-05-23T02:50:59.146Z,100643.72
2023-05-23T02:53:26.038Z,100647.38
2023-05-23T02:55:52.570Z,100651.66
2023-05-23T02:58:19.080Z,100653.81
2023-05-23T03:00:45.628Z,100648.78
2023-05-23T03:03:12.691Z,100647.31
2023-05-23T03:05:39.533Z,100648.78
2023-05-23T03:08:06.833Z,100638.66
2023-05-23T03:10:33.967Z,100641.53
2023-05-23T03:13:00.578Z,100641.53
2023-05-23T03:15:27.128Z,100640.03
2023-05-23T03:17:53.739Z,100637.16
2023-05-23T03:20:20.285Z,100633.53
2023-05-23T03:22:46.780Z,100632.81
2023-05-23T03:25:14.915Z,100627.03
2023-05-23T03:27:41.412Z,100627.03
2023-05-23T03:30:08.028Z,100619.75
2023-05-23T03:32:34.945Z,100618.38
2023-05-23T03:35:01.516Z,100628.44
2023-05-23T03:37:27.987Z,100624.06
2023-05-23T03:39:54.490Z,100625.53
2023-05-23T03:42:20.977Z,100626.97
2023-05-23T03:44:47.556Z,100632.72
2023-05-23T03:47:14.091Z,100635.63
2023-05-23T03:49:42.924Z,100639.25
2023-05-23T03:52:09.512Z,100638.50
2023-05-23T03:54:36.000Z,100634.16
2023-05-23T03:57:02.982Z,100628.38
2023-05-23T03:59:29.931Z,100626.16
2023-05-23T04:01:58.951Z,100629.78
2023-05-23T04:04:26.339Z,100629.78
2023-05-23T04:06:52.987Z,100621.84
2023-05-23T04:09:19.576Z,100626.91
2023-05-23T04:11:47.851Z,100631.19
2023-05-23T04:14:14.676Z,100630.44
2023-05-23T04:16:42.265Z,100639.84
2023-05-23T04:19:09.373Z,100636.22
2023-05-23T04:21:36.056Z,100631.19
2023-05-23T04:24:08.398Z,100627.56
2023-05-23T04:26:36.300Z,100629.72
2023-05-23T04:29:04.366Z,100639.78
2023-05-23T04:31:31.557Z,100639.78
2023-05-23T04:33:58.273Z,100636.91
2023-05-23T04:36:25.755Z,100635.47
2023-05-23T04:38:54.243Z,100639.78
2023-05-23T04:41:23.596Z,100639.06
2023-05-23T04:44:06.091Z,100636.91
2023-05-23T04:46:45.343Z,100645.56
2023-05-23T04:49:16.708Z,100644.06
2023-05-23T04:51:43.356Z,100643.34
2023-05-23T04:54:20.294Z,100645.50
2023-05-23T04:56:46.790Z,100647.94
2023-05-23T04:59:14.900Z,100646.78
2023-05-23T05:01:41.577Z,100649.09
2023-05-23T05:04:09.049Z,100639.66
2023-05-23T05:06:35.750Z,100635.34
2023-05-23T05:09:02.155Z,100642.59
2023-05-23T05:11:28.639Z,100648.38
2023-05-23T05:13:55.221Z,100641.09
2023-05-23T05:16:21.803Z,100648.38
2023-05-23T05:18:49.865Z,100646.88
2023-05-23T05:21:16.306Z,100646.16
2023-05-23T05:23:43.569Z,100653.41
2023-05-23T05:26:10.033Z,100655.53
2023-05-23T05:28:38.173Z,100652.66
2023-05-23T05:31:05.318Z,100646.88
2023-05-23T05:33:37.693Z,100636.03
2023-05-23T05:36:12.806Z,100640.38
2023-05-23T05:38:40.081Z,100639.66
2023-05-23T05:41:08.945Z,100641.03
2023-05-23T05:43:38.886Z,100638.91
2023-05-23T05:46:05.313Z,100641.03
2023-05-23T05:48:32.347Z,100641.03
2023-05-23T05:51:03.297Z,100638.16
2023-05-23T05:53:32.385Z,100636.69
2023-05-23T05:55:58.862Z,100639.56
2023-05-23T05:58:25.304Z,100637.41
2023-05-23T06:00:59.089Z,100631.66
2023-05-23T06:03:26.147Z,100630.91
2023-05-23T06:05:54.430Z,100630.91
2023-05-23T06:08:21.325Z,100630.91
2023-05-23T06:10:48.370Z,100646.78
2023-05-23T06:13:14.828Z,100626.56
2023-05-23T06:15:44.250Z,100635.22
2023-05-23T06:18:11.742Z,100643.88
2023-05-23T06:20:38.523Z,100646.78
2023-05-23T06:23:09.619Z,100649.66
2023-05-23T06:25:36.115Z,100648.91
2023-05-23T06:28:02.557Z,100648.16
2023-05-23T06:30:30.494Z,100652.53
2023-05-23T06:32:57.054Z,100648.91
2023-05-23T06:35:25.138Z,100651.03
2023-05-23T06:37:51.518Z,100666.91
2023-05-23T06:40:18.286Z,100648.91
2023-05-23T06:42:44.686Z,100652.47
2023-05-23T06:45:22.578Z,100650.31
2023-05-23T06:47:49.334Z,100650.97
2023-05-23T06:50:15.837Z,100653.84
2023-05-23T06:52:42.936Z,100652.41
2023-05-23T06:55:09.891Z,100648.09
2023-05-23T06:57:36.566Z,100645.19
2023-05-23T07:00:03.070Z,100652.41
2023-05-23T07:02:30.125Z,100659.63
2023-05-23T07:04:56.590Z,100650.91
2023-05-23T07:07:42.712Z,100656.75
2023-05-23T07:10:09.667Z,100664.66
2023-05-23T07:12:36.434Z,100651.59
2023-05-23T07:15:04.074Z,100653.72
2023-05-23T07:17:31.478Z,100653.72
2023-05-23T07:19:57.939Z,100664.44
2023-05-23T07:22:24.775Z,100659.97
2023-05-23T07:24:51.717Z,100657.97
2023-05-23T07:27:18.321Z,100658.00
2023-05-23T07:29:44.862Z,100658.41
2023-05-23T07:32:11.419Z,100661.06
2023-05-23T07:34:37.869Z,100662.59
2023-05-23T07:37:04.529Z,100662.34
2023-05-23T07:39:38.261Z,100664.91
2023-05-23T07:42:05.459Z,100666.88
2023-05-23T07:44:31.983Z,100656.38
2023-05-23T07:46:58.615Z,100660.06
2023-05-23T07:49:25.693Z,100675.94
2023-05-23T07:51:53.327Z,100667.22
2023-05-23T07:54:19.744Z,100666.56
2023-05-23T07:56:48.525Z,100653.19
2023-05-23T07:59:15.581Z,100657.72
2023-05-23T08:01:42.874Z,100661.00
2023-05-23T08:04:13.089Z,100656.44
2023-05-23T08:07:05.571Z,100660.28
2023-05-23T08:09:42.260Z,100661.72
2023-05-23T08:12:11.772Z,100659.97
2023-05-23T08:14:50.441Z,100667.34
2023-05-23T08:17:22.155Z,100673.09
2023-05-23T08:19:48.813Z,100676.22
2023-05-23T08:22:15.251Z,100675.63
2023-05-23T08:24:41.627Z,100678.00
2023-05-23T08:27:08.184Z,100682.44
2023-05-23T08:29:35.382Z,100682.00
2023-05-23T08:32:02.489Z,100687.16
2023-05-23T08:34:29.186Z,100687.16
2023-05-23T08:36:55.646Z,100696.63
2023-05-23T08:39:22.136Z,100692.34
2023-05-23T08:41:55.297Z,100693.09
2023-05-23T08:44:21.835Z,100707.63
2023-05-23T08:46:53.678Z,100696.72
2023-05-23T08:49:38.672Z,100702.00
2023-05-23T08:52:05.463Z,100694.72
2023-05-23T08:54:35.363Z,100704.19
2023-05-23T08:57:02.222Z,100698.44
2023-05-23T08:59:30.748Z,100706.41
2023-05-23T09:01:57.296Z,100712.94
2023-05-23T09:04:23.984Z,100707.75
2023-05-23T09:06:59.796Z,100707.88
2023-05-23T09:09:26.223Z,100719.59
2023-05-23T09:11:52.666Z,100714.53
2023-05-23T09:14:19.654Z,100713.81
2023-05-23T09:16:48.994Z,100713.88
2023-05-23T09:19:17.777Z,100722.53
2023-05-23T09:21:53.620Z,100721.06
2023-05-23T09:24:35.083Z,100724.63
2023-05-23T09:27:03.042Z,100720.38
2023-05-23T09:29:29.853Z,100726.97
2023-05-23T09:32:12.091Z,100725.50
2023-05-23T09:34:55.222Z,100721.19
2023-05-23T09:37:45.796Z,100721.19
2023-05-23T09:40:13.486Z,100726.97
2023-05-23T09:42:47.973Z,100731.44
2023-05-23T09:45:15.134Z,100719.72
2023-05-23T09:47:51.760Z,100721.41
2023-05-23T09:50:18.392Z,100728.63
2023-05-23T09:52:45.043Z,100724.31
2023-05-23T09:55:11.570Z,100732.97
2023-05-23T09:57:39.730Z,100731.56
2023-05-23T10:00:07.020Z,100739.47
2023-05-23T10:02:50.433Z,100735.78
2023-05-23T10:05:22.450Z,100740.00
2023-05-23T10:07:48.839Z,100739.94
2023-05-23T10:10:15.221Z,100738.59
2023-05-23T10:12:47.327Z,100740.00
2023-05-23T10:15:14.142Z,100752.44
2023-05-23T10:17:52.782Z,100755.97
2023-05-23T10:20:19.236Z,100741.69
2023-05-23T10:22:45.776Z,100744.59
2023-05-23T10:25:12.163Z,100753.31
2023-05-23T10:27:38.667Z,100754.66
2023-05-23T10:30:06.545Z,100757.47
2023-05-23T10:32:32.950Z,100763.25
2023-05-23T10:35:00.220Z,100755.09
2023-05-23T10:37:29.317Z,100762.19
2023-05-23T10:40:01.065Z,100760.56
2023-05-23T10:42:36.985Z,100761.31
2023-05-23T10:45:18.940Z,100753.91
2023-05-23T10:47:46.339Z,100758.19
2023-05-23T10:50:13.917Z,100764.13
2023-05-23T10:52:41.215Z,100759.88
2023-05-23T10:55:14.390Z,100761.59
2023-05-23T10:57:43.737Z,100768.94
2023-05-23T11:00:16.182Z,100764.56
2023-05-23T11:02:47.877Z,100766.69
2023-05-23T11:05:23.326Z,100765.31
2023-05-23T11:08:08.850Z,100762.47
2023-05-23T11:10:51.322Z,100770.41
2023-05-23T11:13:17.716Z,100769.75
2023-05-23T11:15:45.725Z,100761.09
2023-05-23T11:18:19.635Z,100770.47
2023-05-23T11:20:47.471Z,100777.75
2023-05-23T11:23:14.043Z,100777.75
2023-05-23T11:25:42.067Z,100777.75
2023-05-23T11:28:08.838Z,100769.00
2023-05-23T11:30:36.850Z,100773.28
2023-05-23T11:33:07.529Z,100780.66
2023-05-23T11:35:34.717Z,100777.78
2023-05-23T11:38:01.169Z,100774.91
2023-05-23T11:40:28.184Z,100769.91
2023-05-23T11:42:54.841Z,100782.53
2023-05-23T11:45:21.994Z,100787.78
2023-05-23T11:47:48.395Z,100788.53
2023-05-23T11:50:15.602Z,100795.31
2023-05-23T11:52:42.469Z,100788.41
2023-05-23T11:55:09.086Z,100784.91
2023-05-23T11:57:38.646Z,100790.75
2023-05-23T12:00:08.908Z,100793.63
2023-05-23T12:02:38.832Z,100785.88
2023-05-23T12:05:11.714Z,100796.75
2023-05-23T12:07:56.007Z,100795.19
2023-05-23T12:10:22.639Z,100787.94
2023-05-23T12:12:49.187Z,100788.69
2023-05-23T12:15:16.030Z,100789.41
2023-05-23T12:17:48.509Z,100795.19
2023-05-23T12:20:15.162Z,100795.19
2023-05-23T12:22:42.000Z,100788.03
2023-05-23T12:25:08.789Z,100798.13
2023-05-23T12:27:35.631Z,100795.25
2023-05-23T12:30:09.200Z,100796.81
2023-05-23T12:32:37.364Z,100798.28
2023-05-23T12:35:04.099Z,100800.38
2023-05-23T12:37:30.771Z,100802.66
2023-05-23T12:39:57.220Z,100802.66
2023-05-23T12:42:23.605Z,100801.09
2023-05-23T12:44:51.733Z,100804.06
2023-05-23T12:47:18.335Z,100812.00
2023-05-23T12:49:46.627Z,100802.72
2023-05-23T12:52:13.052Z,100806.28
2023-05-23T12:54:39.465Z,100802.72
2023-05-23T12:57:05.885Z,100812.88
2023-05-23T12:59:32.286Z,100817.22
2023-05-23T13:01:59.713Z,100815.75
2023-05-23T13:04:26.192Z,100811.47
2023-05-23T13:06:53.071Z,100819.31
2023-05-23T13:09:19.628Z,100819.31
2023-05-23T13:11:46.655Z,100822.94
2023-05-23T13:14:14.000Z,100825.81
2023-05-23T13:16:40.676Z,100818.56
2023-05-23T13:19:07.718Z,100818.56
2023-05-23T13:21:34.134Z,100832.28
2023-05-23T13:24:00.514Z,100822.84
2023-05-23T13:26:27.240Z,100830.03
2023-05-23T13:28:53.606Z,100832.19
2023-05-23T13:31:20.043Z,100844.38
2023-05-23T13:33:46.467Z,100839.34
2023-05-23T13:36:12.874Z,100835.81
2023-05-23T13:38:39.275Z,100832.94
2023-05-23T13:41:05.669Z,100835.72
2023-05-23T13:43:32.095Z,100831.50
2023-05-23T13:45:58.589Z,100837.97
2023-05-23T13:48:25.023Z,100834.34
2023-05-23T13:50:51.436Z,100843.00
2023-05-23T13:53:17.829Z,100844.31
2023-05-23T13:55:45.244Z,100850.25
2023-05-23T13:58:11.866Z,100849.50
2023-05-23T14:00:38.401Z,100848.78
2023-05-23T14:03:04.852Z,100845.88
2023-05-23T14:05:31.521Z,100855.94
2023-05-23T14:07:57.961Z,100859.47
2023-05-23T14:10:24.355Z,100850.09
2023-05-23T14:12:50.749Z,100853.69
2023-05-23T14:15:18.275Z,100862.38
2023-05-23T14:17:44.740Z,100854.38
2023-05-23T14:20:11.286Z,100861.63
2023-05-23T14:22:37.685Z,100860.16
2023-05-23T14:25:04.194Z,100864.50
2023-05-23T14:27:30.599Z,100860.16
2023-05-23T14:29:57.060Z,100865.19
2023-05-23T14:32:23.479Z,100868.81
2023-05-23T14:34:49.964Z,100863.03
2023-05-23T14:37:16.361Z,100864.44
2023-05-23T14:39:42.733Z,100862.97
2023-05-23T14:42:09.161Z,100870.22
2023-05-23T14:44:35.618Z,100862.97
2023-05-23T14:47:02.021Z,100876.66
2023-05-23T14:49:28.415Z,100891.81
2023-05-23T14:51:54.793Z,100898.94
2023-05-23T14:54:21.268Z,100905.59
2023-05-23T14:56:47.821Z,100909.22
2023-05-23T14:59:14.307Z,100907.72
2023-05-23T15:01:41.232Z,100928.69
2023-05-23T15:04:09.336Z,100927.91
2023-05-23T15:06:35.932Z,100941.63
2023-05-23T15:09:02.358Z,100936.56
2023-05-23T15:11:28.815Z,100951.00
2023-05-23T15:13:55.217Z,100945.91
2023-05-23T15:16:21.894Z,100953.81
2023-05-23T15:18:48.441Z,100953.81
2023-05-23T15:21:14.916Z,100946.56
2023-05-23T15:23:41.565Z,100949.53
2023-05-23T15:26:08.145Z,100958.19
2023-05-23T15:28:34.555Z,100959.56
2023-05-23T15:31:00.970Z,100971.13
2023-05-23T15:33:27.502Z,100964.63
2023-05-23T15:35:54.801Z,100973.94
2023-05-23T15:38:21.194Z,100975.41
2023-05-23T15:40:48.879Z,100973.19
2023-05-23T15:43:15.434Z,100979.72
2023-05-23T15:45:44.471Z,100976.84
2023-05-23T15:48:11.191Z,100979.72
2023-05-23T15:50:37.633Z,100981.84
2023-05-23T15:53:04.065Z,100976.75
2023-05-23T15:55:30.557Z,100984.00
2023-05-23T15:57:56.938Z,100981.13
2023-05-23T16:00:23.368Z,100984.00
2023-05-23T16:02:49.833Z,100986.16
2023-05-23T16:05:16.296Z,100989.75
2023-05-23T16:07:42.696Z,100994.06
2023-05-23T16:10:09.242Z,100992.56
2023-05-23T16:12:35.672Z,100989.69
2023-05-23T16:15:02.137Z,100992.56
2023-05-23T16:17:28.565Z,100990.41
2023-05-23T16:19:54.970Z,100986.81
2023-05-23T16:22:21.521Z,100992.56
2023-05-23T16:24:47.929Z,100989.69
2023-05-23T16:27:14.406Z,100992.41
2023-05-23T16:29:40.794Z,100997.09
2023-05-23T16:32:07.405Z,100997.34
2023-05-23T16:34:35.224Z,100998.41
2023-05-23T16:37:01.634Z,101005.13
2023-05-23T16:39:28.021Z,101012.13
2023-05-23T16:41:54.429Z,101017.09
2023-05-23T16:44:20.840Z,101015.72
2023-05-23T16:46:47.334Z,101018.59
2023-05-23T16:49:13.738Z,101025.53
2023-05-23T16:51:40.239Z,101029.81
2023-05-23T16:54:06.652Z,101037.31
2023-05-23T16:56:33.052Z,101033.69
2023-05-23T16:58:59.455Z,101038.38
2023-05-23T17:01:25.900Z,101039.63
2023-05-23T17:03:52.762Z,101048.59
2023-05-23T17:06:19.351Z,101049.72
2023-05-23T17:08:45.791Z,101055.50
2023-05-23T17:11:12.221Z,101057.34
2023-05-23T17:13:38.605Z,101056.25
2023-05-23T17:16:05.035Z,101063.38
2023-05-23T17:18:31.985Z,101066.91
2023-05-23T17:20:58.384Z,101068.06
2023-05-23T17:23:24.984Z,101070.81
2023-05-23T17:25:51.412Z,101081.94
2023-05-23T17:28:17.803Z,101076.00
2023-05-23T17:30:44.269Z,101088.88
2023-05-23T17:33:13.616Z,101080.38
2023-05-23T17:35:40.446Z,101086.75
2023-05-23T17:38:07.095Z,101081.72
2023-05-23T17:40:33.541Z,101086.75
2023-05-23T17:43:00.031Z,101089.94
2023-05-23T17:45:26.414Z,101088.38
2023-05-23T17:47:52.863Z,101100.09
2023-05-23T17:50:19.283Z,101097.28
2023-05-23T17:52:45.836Z,101093.66
2023-05-23T17:55:12.247Z,101087.16
2023-05-23T17:57:38.649Z,101085.75
2023-05-23T18:00:05.967Z,101079.97
2023-05-23T18:02:39.016Z,101085.75
2023-05-23T18:05:06.960Z,101093.56
2023-05-23T18:07:33.363Z,101091.50
2023-05-23T18:10:00.013Z,101097.88
2023-05-23T18:12:26.978Z,101105.28
2023-05-23T18:14:53.397Z,101102.56
2023-05-23T18:17:19.857Z,101104.03
2023-05-23T18:19:49.427Z,101109.06
2023-05-23T18:22:16.694Z,101108.34
2023-05-23T18:24:43.226Z,101105.38
2023-05-23T18:27:09.639Z,101110.22
2023-05-23T18:29:36.153Z,101112.28
2023-05-23T18:32:02.702Z,101116.56
2023-05-23T18:34:29.394Z,101115.81
2023-05-23T18:36:55.882Z,101123.09
2023-05-23T18:39:22.335Z,101131.00
2023-05-23T18:41:48.800Z,101133.22
2023-05-23T18:44:16.102Z,101133.97
2023-05-23T18:46:43.410Z,101141.16
2023-05-23T18:49:09.826Z,101141.16
2023-05-23T18:51:36.966Z,101140.41
2023-05-23T18:54:03.357Z,101154.06
2023-05-23T18:56:29.777Z,101154.06
2023-05-23T18:58:56.279Z,101168.50
2023-05-23T19:01:22.878Z,101167.03
2023-05-23T19:03:49.397Z,101173.53
2023-05-23T19:06:15.918Z,101166.94
2023-05-23T19:08:44.997Z,101175.59
2023-05-23T19:11:11.402Z,101171.97
2023-05-23T19:13:37.840Z,101179.13
2023-05-23T19:16:04.372Z,101185.66
2023-05-23T19:18:31.674Z,101188.53
2023-05-23T19:20:58.100Z,101188.44
2023-05-23T19:23:24.641Z,101189.94
2023-05-23T19:25:51.080Z,101193.47
2023-05-23T19:28:17.494Z,101203.53
2023-05-23T19:30:44.078Z,101202.78
2023-05-23T19:33:10.825Z,101198.41
2023-05-23T19:35:37.344Z,101196.94
2023-05-23T19:38:03.790Z,101211.34
2023-05-23T19:40:30.217Z,101202.59
2023-05-23T19:42:56.615Z,101208.56
2023-05-23T19:45:23.048Z,101215.81
2023-05-23T19:47:49.489Z,101220.09
2023-05-23T19:50:15.961Z,101220.00
2023-05-23T19:52:42.395Z,101227.16
2023-05-23T19:55:09.095Z,101227.09
2023-05-23T19:57:37.094Z,101228.56
2023-05-23T20:00:05.101Z,101233.59
2023-05-23T20:02:31.628Z,101231.38
2023-05-23T20:04:58.067Z,101232.78
2023-05-23T20:07:24.518Z,101239.28
2023-05-23T20:09:51.291Z,101241.44
2023-05-23T20:12:17.685Z,101242.81
2023-05-23T20:14:44.099Z,101254.34
2023-05-23T20:17:10.481Z,101254.34
2023-05-23T20:19:36.964Z,101260.13
2023-05-23T20:22:03.605Z,101252.13
2023-05-23T20:24:31.746Z,101263.66
2023-05-23T20:26:58.206Z,101263.66
2023-05-23T20:29:24.604Z,101274.44
2023-05-23T20:31:51.311Z,101278.00
2023-05-23T20:34:17.743Z,101283.00
2023-05-23T20:36:44.119Z,101283.78
2023-05-23T20:39:10.518Z,101275.00
2023-05-23T20:41:37.026Z,101280.13
2023-05-23T20:44:03.425Z,101281.50
2023-05-23T20:46:29.854Z,101282.91
2023-05-23T20:48:57.390Z,101283.56
2023-05-23T20:51:24.006Z,101290.06
2023-05-23T20:53:51.406Z,101290.06
2023-05-23T20:56:18.167Z,101295.09
2023-05-23T20:58:45.792Z,101293.59
2023-05-23T21:01:12.311Z,101294.34
2023-05-23T21:03:38.750Z,101295.72
2023-05-23T21:06:05.268Z,101295.72
2023-05-23T21:08:33.842Z,101310.16
2023-05-23T21:11:01.273Z,101306.53
2023-05-23T21:13:27.657Z,101303.66
2023-05-23T21:15:54.074Z,101312.94
2023-05-23T21:18:20.524Z,101314.44
2023-05-23T21:20:46.931Z,101311.56
2023-05-23T21:23:13.349Z,101307.16
2023-05-23T21:25:39.740Z,101311.47
2023-05-23T21:28:06.143Z,101317.22
2023-05-23T21:30:32.650Z,101315.72
2023-05-23T21:32:59.213Z,101327.25
2023-05-23T21:35:25.634Z,101318.72
2023-05-23T21:37:52.041Z,101320.94
2023-05-23T21:40:18.439Z,101331.75
2023-05-23T21:42:44.894Z,101323.09
2023-05-23T21:45:11.346Z,101330.25
2023-05-23T21:47:37.854Z,101327.25
2023-05-23T21:50:04.601Z,101330.81
2023-05-23T21:52:31.064Z,101332.94
2023-05-23T21:54:57.447Z,101334.34
2023-05-23T21:57:23.993Z,101330.06
2023-05-23T21:59:50.375Z,101325.69
2023-05-23T22:02:17.290Z,101336.50
2023-05-23T22:04:44.816Z,101333.59
2023-05-23T22:07:11.226Z,101338.63
2023-05-23T22:09:37.636Z,101338.63
2023-05-23T22:12:04.119Z,101344.41
2023-05-23T22:14:30.760Z,101335.66
2023-05-23T22:16:59.042Z,101338.53
2023-05-23T22:19:26.317Z,101341.41
2023-05-23T22:21:53.224Z,101342.16
2023-05-23T22:24:19.605Z,101336.38
2023-05-23T22:26:46.082Z,101336.38
2023-05-23T22:29:12.465Z,101341.41
2023-05-23T22:31:39.434Z,101339.91
2023-05-23T22:34:05.883Z,101349.97
2023-05-23T22:36:33.472Z,101348.56
2023-05-23T22:39:02.241Z,101352.84
2023-05-23T22:41:28.711Z,101347.09
2023-05-23T22:43:55.164Z,101347.00
2023-05-23T22:46:21.574Z,101347.72
2023-05-23T22:48:47.969Z,101344.09
2023-05-23T22:51:14.634Z,101347.00
2023-05-23T22:53:41.408Z,101345.50
2023-05-23T22:56:07.813Z,101352.03
2023-05-23T22:58:34.206Z,101349.78
2023-05-23T23:01:00.674Z,101342.59
2023-05-23T23:03:27.142Z,101349.78
2023-05-23T23:05:53.569Z,101352.66
2023-05-23T23:08:20.014Z,101351.19
2023-05-23T23:10:46.480Z,101350.41
2023-05-23T23:13:15.951Z,101348.31
2023-05-23T23:15:43.108Z,101351.81
2023-05-23T23:18:09.708Z,101351.81
2023-05-23T23:20:36.481Z,101345.31
2023-05-23T23:23:03.079Z,101351.09
2023-05-23T23:25:30.359Z,101351.09
2023-05-23T23:27:56.756Z,101353.97
2023-05-23T23:30:23.131Z,101355.34
2023-05-23T23:32:49.600Z,101355.34
2023-05-23T23:35:16.025Z,101355.34
2023-05-23T23:37:42.496Z,101359.63
2023-05-23T23:40:09.073Z,101354.59
2023-05-23T23:42:35.574Z,101358.91
2023-05-23T23:45:01.977Z,101352.34
2023-05-23T23:47:28.399Z,101355.25
2023-05-23T23:49:54.815Z,101352.34
2023-05-23T23:52:21.190Z,101351.63
2023-05-23T23:54:47.921Z,101362.41
2023-05-23T23:57:14.384Z,101353.75
2023-05-23T23:59:41.361Z,101367.44
